Reportages photos

Inscriptions en ligne

Connexion

Semi

SEMI SAINT FIRMIN du 26/09/15 (Réelle 21,1)
Rang Dossard Nom Prénom Temps Cat Rang Cat Ecart Ecart Cat Club Vitesse Km/h Temps au Km
1 345 REDHEAD CHRISTOPHER 01:18:03 V1M 1 00:00:00 00:00:00 AIRES LYS 16,220 03:42
2 347 MOREL NICOLAS 01:18:22 V1M 2 00:00:19 00:00:19 TOUQUET OPALE ATHLETISME 16,155 03:43
3 396 PRAITE ALAIN 01:23:19 SEM 1 00:05:16 00:00:00 BERCK ATHLETISME COTE D OPALE 15,195 03:57
4 337 LAMY RICHARD 01:25:03 SEM 2 00:07:00 00:01:44 NON LICENCIE 14,885 04:02
5 409 RUMEAU MICHAEL 01:25:39 SEM 3 00:07:36 00:02:20 ATHLETIQUE CLUB CAPELLOIS 14,781 04:04
6 340 REMBUR DANIEL 01:26:54 V2M 1 00:08:51 00:00:00 TOUQUET OPALE ATHLETISME 14,568 04:07
7 393 BLOQUET STANISLAS 01:27:50 V1M 3 00:09:47 00:09:47 ATHLETISME CLUB OUTREAU 14,414 04:10
8 400 COURONNEL ROMAIN 01:28:00 JUM 1 00:09:57 00:00:00 TOUQUET TRAIL NATURE 14,386 04:10
9 374 TETARD EMMANUEL 01:28:16 SEM 4 00:10:13 00:04:57 OMNISPORT DE CAMPAGNE 14,343 04:11
10 385 BADON EMMANUEL 01:28:39 SEM 5 00:10:36 00:05:20 ATHLETISME CLUB OUTREAU 14,281 04:12
11 339 TAVERNE DAMIEN 01:28:43 SEM 6 00:10:40 00:05:24 TOUQUET OPALE ATHLETISME 14,270 04:12
12 389 DUVIEUXBOURG NICOLAS 01:28:58 SEM 7 00:10:55 00:05:39 LA PATRIOTE CROSS DE GUINES 14,230 04:13
13 316 ENRY ALEXANDRE 01:29:13 SEM 8 00:11:10 00:05:54 OMNISPORT DE CAMPAGNE 14,190 04:14
14 388 RICHARD DANIEL 01:29:20 V3M 1 00:11:17 00:00:00 NON LICENCIE 14,172 04:14
15 358 DOCQUOIS FREDERIC 01:30:04 V1M 4 00:12:01 00:12:01 LE DRAPEAU 14,056 04:16
16 364 FOUCAULT SYLVAIN 01:30:22 SEM 9 00:12:19 00:07:03 CULTURE DANSE ETAPLES 14,010 04:17
17 402 HONVAULT AURELIEN 01:30:58 SEM 10 00:12:55 00:07:39 NON LICENCIE 13,917 04:19
18 381 RAY SAMUEL 01:31:06 V1M 5 00:13:03 00:13:03 NON LICENCIE 13,897 04:19
19 363 FLAHAUT DANIEL 01:31:49 V1M 6 00:13:46 00:13:46 LE DRAPEAU 13,788 04:21
20 403 BOUVOT CYRILLE 01:32:41 SEM 11 00:14:38 00:09:22 NON LICENCIE 13,659 04:24
21 377 PONT DOMINIQUE 01:32:52 V1M 7 00:14:49 00:14:49 ETAPLES TRIATHLON 13,632 04:24
22 370 THERET MICKAEL 01:33:25 SEM 12 00:15:22 00:10:06 NON LICENCIE 13,552 04:26
23 351 SAILLY ROMAIN 01:34:00 SEM 13 00:15:57 00:10:41 NON LICENCIE 13,468 04:27
24 329 ROBART EDDY 01:34:05 V1M 8 00:16:02 00:16:02 CS NESLES 13,456 04:28
25 365 LAURENT JOCELYN 01:34:25 V2M 2 00:16:22 00:07:31 CULTURE DANSE ETAPLES 13,409 04:28
26 315 BAHEUX JEAN MICHEL 01:34:51 V3M 2 00:16:48 00:05:31 NON LICENCIE 13,347 04:30
27 360 DAMIENS PHILIPPE 01:35:49 V1M 9 00:17:46 00:17:46 LE DRAPEAU 13,213 04:32
28 379 CARON FRANCOIS 01:35:53 SEM 14 00:17:50 00:12:34 NON LICENCIE 13,204 04:33
29 395 SEINE CEDRIC 01:36:08 V1M 10 00:18:05 00:18:05 NON LICENCIE 13,169 04:33
30 325 PHILIS JACQUES 01:36:22 V3M 3 00:18:19 00:07:02 TOUQUET OPALE ATHLETISME 13,137 04:34
31 321 BAUCHER VALERY 01:37:37 SEM 15 00:19:34 00:14:18 NON LICENCIE 12,969 04:38
32 410 HAGNERE FREDERIC 01:38:10 V2M 3 00:20:07 00:11:16 NON LICENCIE 12,896 04:39
33 335 FRANCOIS JEROME 01:38:35 V1M 11 00:20:32 00:20:32 ASEC80 12,842 04:40
34 391 LIGNIER SEBASTIEN 01:38:58 SEM 16 00:20:55 00:15:39 NON LICENCIE 12,792 04:41
35 359 DOCQUOIS MICHEL 01:39:15 V1M 12 00:21:12 00:21:12 LE DRAPEAU 12,756 04:42
36 348 MOUILLARD DANIEL 01:40:33 V1M 13 00:22:30 00:22:30 ASEC VIVA VRON 12,591 04:46
37 399 FERTEL JEROME 01:41:44 V1M 14 00:23:41 00:23:41 ASEC80 12,444 04:49
38 392 MAQUINGHEN CHRISTOPHE 01:42:22 V1M 15 00:24:19 00:24:19 NON LICENCIE 12,367 04:51
39 405 BOUTOILLE ERIC 01:42:52 V2M 4 00:24:49 00:15:58 NON LICENCIE 12,307 04:53
40 408 VANTORNE ALEXIS 01:43:08 SEM 17 00:25:05 00:19:49 NON LICENCIE 12,275 04:53
41 401 ROBBE LAETITIA 01:43:14 SEF 1 00:25:11 00:00:00 NON LICENCIE 12,263 04:54
42 320 AVOT MICHEL HERVE 01:43:38 V3M 4 00:25:35 00:14:18 AIX ATHLE PROVENCE 12,216 04:55
43 386 LEPRETRE GUILLAUME 01:43:47 V1M 16 00:25:44 00:25:44 NON LICENCIE 12,198 04:55
44 342 LENOIR STEPHANE 01:44:25 V1M 17 00:26:22 00:26:22 BERCK ATHLETISME COTE D'OPALE 12,125 04:57
45 334 CAFFIERS LAURENT 01:44:25 V1M 18 00:26:22 00:26:22 CAMIERS 12,125 04:57
46 406 RENARD JULIEN 01:44:31 SEM 18 00:26:28 00:21:12 AC OUTREAU 12,113 04:57
47 344 MARTIN DAVID 01:44:47 V1M 19 00:26:44 00:26:44 POMPIERS DESVRES 12,082 04:58
48 330 TETARD CHRISTOPHE 01:44:49 V1M 20 00:26:46 00:26:46 OPALE TRAIL NATURE 12,078 04:58
49 327 DEBOVE JONATHAN 01:44:50 SEM 19 00:26:47 00:21:31 SAPEUR POMPIER 12,076 04:58
50 308 NOURTIER CLEMENT 01:45:02 JUM 2 00:26:59 00:17:02 CAC CALOTERIE 12,053 04:59
51 404 BIGAND FREDERIC 01:45:27 SEM 20 00:27:24 00:22:08 NON LICENCIE 12,006 05:00
52 367 DETHOOR DOMINIQUE 01:45:28 V2M 5 00:27:25 00:18:34 COLEMBERT 12,004 05:00
53 343 RUIZ JOSEPH 01:46:20 V2M 6 00:28:17 00:19:26 BERCK ATHLETISME COTE D'OPALE 11,906 05:02
54 368 CAULIER RUDOLPH 01:46:31 V1M 21 00:28:28 00:28:28 COLEMBERT 11,885 05:03
55 349 COLIN CHRISTOPHE 01:46:51 V1M 22 00:28:48 00:28:48 NON LICENCIE 11,848 05:04
56 350 MACRET MAXIME 01:47:00 SEM 21 00:28:57 00:23:41 NON LICENCIE 11,832 05:04
57 380 BEERNAERT LAURENT 01:48:02 V2M 7 00:29:59 00:21:08 CAC CALOTERIE 11,719 05:07
58 307 ROUSSEL MARIE 01:48:02 SEF 2 00:29:59 00:04:48 CAC CALOTERIE 11,719 05:07
59 304 LE COZ PIERRE-YVES 01:48:03 V1M 23 00:30:00 00:30:00 CAC CALOTERIE 11,717 05:07
60 362 PIENTON CEDRIC 01:48:46 SEM 22 00:30:43 00:25:27 LE DRAPEAU 11,640 05:09
61 369 LENFANT PETER 01:50:04 V1M 24 00:32:01 00:32:01 NON LICENCIE 11,502 05:13
62 398 CARPENTIER CARINE 01:50:06 V1F 1 00:32:03 00:00:00 ASEC80 11,499 05:13
63 387 MILLE FRANCIS 01:50:31 V2M 8 00:32:28 00:23:37 NON LICENCIE 11,455 05:14
64 397 CARPENTIER THIERRY 01:50:42 V1M 25 00:32:39 00:32:39 ASEC80 11,436 05:15
65 394 LEMAIRE ADRIEN 01:51:12 SEM 23 00:33:09 00:27:53 NON LICENCIE 11,385 05:16
66 317 LENGAGNE ANTOINE 01:51:13 SEM 24 00:33:10 00:27:54 NON LICENCIE 11,383 05:16
67 376 BUQUET STEPHANE 01:51:53 V1M 26 00:33:50 00:33:50 CAC CALOTERIE 11,315 05:18
68 411 GRESSIER ROBERT 01:52:21 V2M 9 00:34:18 00:25:27 NON LICENCIE 11,268 05:19
69 346 BOUVILLE GHISLAIN 01:53:16 V2M 10 00:35:13 00:26:22 NON LICENCIE 11,177 05:22
70 324 BOURNAILLIE NICOLE 01:53:20 V3F 1 00:35:17 00:00:00 BERCK ATHLETISME COTE D'OPALE 11,171 05:22
71 323 SAMIEC THIERRY 01:53:42 V1M 27 00:35:39 00:35:39 NON LICENCIE 11,135 05:23
72 366 RAY ISABELLE 01:54:06 V1F 2 00:36:03 00:04:00 CULTURE DANSE ETAPLES 11,096 05:24
73 412 CORDIER HUGUES 01:54:27 SEM 25 00:36:24 00:31:08 NON LICENCIE 11,062 05:25
74 382 SIWEK JEAN-PHILIPPE 01:54:39 V1M 28 00:36:36 00:36:36 RUNNING'GROUP 11,042 05:26
75 311 DELBE PASCALE 01:56:41 V2F 1 00:38:38 00:00:00 CAC CALOTERIE 10,850 05:32
76 353 CAPONE LAURA 01:57:16 SEF 3 00:39:13 00:14:02 NON LICENCIE 10,796 05:33
77 383 DUBOCQUET LAURENT 01:57:17 SEM 26 00:39:14 00:33:58 NON LICENCIE 10,794 05:34
78 301 VOLANT ROGER 01:58:11 V1M 29 00:40:08 00:40:08 COURIR À ABBEVILLE 10,712 05:36
79 318 LANGIN STEPHANIE 01:58:18 SEF 4 00:40:15 00:15:04 CAA 10,702 05:36
80 356 FAUQUEMBERGUE VERONIQUE 02:01:08 V1F 3 00:43:05 00:11:02 LE DRAPEAU 10,451 05:44
81 375 DAVID SYLVAIN 02:01:23 V2M 11 00:43:20 00:34:29 NON LICENCIE 10,430 05:45
82 326 BERTHE AUDREY 02:01:39 V1F 4 00:43:36 00:11:33 COURIR À ABBEVILLE 10,407 05:46
83 390 STEC FREDERIC 02:02:11 V1M 30 00:44:08 00:44:08 NON LICENCIE 10,361 05:47
84 314 MAGNIER BEATRICE 02:02:35 V2F 2 00:44:32 00:05:54 SAINT MARTIN ATHLETISME 10,328 05:49
85 371 DEWEER GAELLE 02:02:37 SEF 5 00:44:34 00:19:23 CS NESLES 10,325 05:49
86 384 HERMAN NATHALIE 02:02:42 V1F 5 00:44:39 00:12:36 RUNNING'GROUP 10,318 05:49
87 309 BERNARD DAVID 02:03:02 V1M 31 00:44:59 00:44:59 CAC CALOTERIE 10,290 05:50
88 355 LEBEGUE THERESE 02:03:17 V2F 3 00:45:14 00:06:36 LE DRAPEAU 10,269 05:51
89 372 MALFOY JEAN-PIERRE 02:03:17 V3M 5 00:45:14 00:33:57 SAINT MARTIN ATHLETISME 10,269 05:51
90 312 THERY MARTINE 02:04:21 V2F 4 00:46:18 00:07:40 NON LICENCIE 10,181 05:54
91 341 MACHOWIAK FRANCIS 02:04:24 V3M 6 00:46:21 00:35:04 BERCK ATHLETISME COTE D'OPALE 10,177 05:54
92 357 PREMEAU CHRISTINE 02:04:48 V2F 5 00:46:45 00:08:07 LE DRAPEAU 10,144 05:55
93 352 DE GAVRILOFF MAUDE 02:04:59 SEF 6 00:46:56 00:21:45 NON LICENCIE 10,129 05:55
94 373 BETHOUART VALERIE 02:05:18 V1F 6 00:47:15 00:15:12 OMNISPORT DE CAMPAGNE 10,104 05:56
95 378 LAVIE BETTY 02:05:28 SEF 7 00:47:25 00:22:14 TOUQUET TRAIL NATURE 10,090 05:57
96 328 CHARTAUX SUZEL 02:05:28 V1F 7 00:47:25 00:15:22 CS NESLES 10,090 05:57
97 305 LE COZ NATHALIE 02:06:08 V1F 8 00:48:05 00:16:02 CAC CALOTERIE 10,037 05:59
98 306 SAGNIER ARNAUD 02:06:09 V1M 32 00:48:06 00:48:06 CAC CALOTERIE 10,036 05:59
99 322 RAMET CORALIE 02:07:02 V1F 9 00:48:59 00:16:56 CAC CALOTERIE 9,966 06:01
100 303 TAILLARDAS FLAVIE 02:07:45 SEF 8 00:49:42 00:24:31 CAC CALOTERIE 9,910 06:03
101 407 CORDIER LAURENT 02:09:41 V1M 33 00:51:38 00:51:38 NON LICENCIE 9,762 06:09
102 338 LECLERCQ ANNE-MARIE 02:14:28 V3F 2 00:56:25 00:21:08 SAINT MARTIN ATHLETISME 9,415 06:22
103 331 MONTADOR JACQUES 02:19:35 V3M 7 01:01:32 00:50:15 AS CAMIERS 9,070 06:37
104 354 MODOLO FANNY 02:31:56 V1F 10 01:13:53 00:41:50 LE DRAPEAU 8,333 07:12

 

Novembre 2017
Lun Mar Mer Jeu Ven Sam Dim
1
2
3
4
5
6
7
8
9
10
11
12
13
14
15
16
17
18
19
20
21
22
23
24
25
27
28
29
30